TimePST,TemperatureF,Dew PointF,Humidity,Sea Level PressureIn,VisibilityMPH,Wind Direction,Wind SpeedMPH,Gust SpeedMPH,PrecipitationIn,Events,Conditions,WindDirDegrees,DateUTC
12:53 AM,60.1,23.0,24,30.02,10.0,SE,9.2,-,N/A,,Clear,140,2013-01-23 08:53:00
1:53 AM,59.0,24.1,26,30.03,10.0,SE,5.8,-,N/A,,Clear,140,2013-01-23 09:53:00
2:53 AM,60.1,25.0,26,30.02,10.0,SE,6.9,-,N/A,,Clear,140,2013-01-23 10:53:00
3:53 AM,64.0,25.0,23,30.01,10.0,SSE,9.2,-,N/A,,Clear,150,2013-01-23 11:53:00
4:53 AM,64.0,25.0,23,30.01,10.0,SSE,9.2,-,N/A,,Clear,150,2013-01-23 12:53:00
5:53 AM,63.0,26.1,25,30.02,10.0,South,6.9,-,N/A,,Clear,170,2013-01-23 13:53:00
6:53 AM,64.9,28.0,25,30.04,10.0,South,5.8,25.3,N/A,,Clear,180,2013-01-23 14:53:00
7:53 AM,66.9,30.9,26,30.05,10.0,North,-9999.0,-,N/A,,Clear,0,2013-01-23 15:53:00
8:53 AM,70.0,32.0,25,30.05,10.0,SSE,8.1,-,N/A,,Clear,160,2013-01-23 16:53:00
9:53 AM,73.0,34.0,24,30.06,10.0,SSE,6.9,-,N/A,,Clear,160,2013-01-23 17:53:00
10:53 AM,75.0,36.0,24,30.06,10.0,South,8.1,-,N/A,,Clear,180,2013-01-23 18:53:00
11:53 AM,75.9,35.1,23,30.05,10.0,North,-9999.0,-,N/A,,Clear,0,2013-01-23 19:53:00
12:53 PM,73.9,28.9,19,30.03,10.0,South,9.2,18.4,N/A,,Clear,190,2013-01-23 20:53:00
1:53 PM,75.0,30.0,19,30.03,10.0,SSW,12.7,-,N/A,,Clear,200,2013-01-23 21:53:00
2:53 PM,71.1,27.0,19,30.04,10.0,South,15.0,-,N/A,,Clear,190,2013-01-23 22:53:00
3:53 PM,70.0,26.1,19,30.06,10.0,South,10.4,-,N/A,,Clear,170,2013-01-23 23:53:00
4:53 PM,69.1,26.1,20,30.06,10.0,South,8.1,-,N/A,,Scattered Clouds,180,2013-01-24 00:53:00
5:53 PM,66.0,28.0,24,30.09,10.0,SSW,5.8,-,N/A,,Overcast,200,2013-01-24 01:53:00
6:53 PM,66.9,28.0,23,30.08,10.0,SSW,8.1,-,N/A,,Mostly Cloudy,210,2013-01-24 02:53:00
7:53 PM,64.0,30.0,28,30.09,10.0,Calm,Calm,-,N/A,,Mostly Cloudy,0,2013-01-24 03:53:00
8:53 PM,63.0,30.9,30,30.10,10.0,Calm,Calm,-,N/A,,Mostly Cloudy,0,2013-01-24 04:53:00
9:53 PM,63.0,33.1,33,30.12,10.0,SW,3.5,-,0.00,,Overcast,220,2013-01-24 05:53:00
10:53 PM,61.0,39.0,44,30.12,10.0,Calm,Calm,-,0.00,,Overcast,0,2013-01-24 06:53:00
11:53 PM,60.1,39.0,46,30.11,10.0,NNE,4.6,-,0.00,,Overcast,20,2013-01-24 07:53:00